Homer, Louisiana
Current Conditions -  °F | °C
As of 6:14 AM on Friday 31 Oct 2014 (Local Time) from KMNE Reporting Station
Clear Clear  
Wind Chill: 44°   Ceiling: Unl
Heat Index: 46°   Visibility: 10mi
Dew Point: 45°   Wind: 5mph
Humidity: 93%   Direction: 360°N
Pressure: 30.11"   Gusts: NA
Location:  32.79°N, 93.06°W
Report Text: KMNE 311114Z AUTO 36004KT 10SM CLR 08/07 A3011 RMK AO2
Loading
Personal Weather Stations






























Interactive Weather Map
Tropical Storm Tracking
New forecast layout! Learn more

10-Day Weather Forecast

Advertisements
Track Severe Weather on mobile